메인 페이지
METAR-TAF:

METAR-TAF

공항 :

포트수단, 수단

위도: 19-26N, 경도: 037-14E, 고도: 138m

METAR: 누락

시각: 00:58 (22:58 UTC)

예보

예보는 5 시간 58분 전, 17:00시(UTC)에 발표되었습니다.
예보 대상 시간: 01일 18시부터 02일 24시까지 (UTC)
10kt
시정 10km 이상
1500m 미만 상공 구름 및 적란운 없음
전환 중
01일 19시부터 01일 21시까지 (UTC)
북서8kt

TAF: HSPN 011700Z 0118/0224 360010KT CAVOK BECMG 0119/0121 32008KT

4,000개 이상의 공항 관측 자료 및 예보 (METAR 및 TAF 보고).

지도상에서 검색 가능한 기상관측소가 노란 점과 빨간 점으로 표시되어 있습니다.

기상관측소 명을 보려면 표시 위로 마우스를 이동하세요.

날씨 관측과 예보를 보려면 클릭하세요.

지도 변경 : 확대하려면 엑스 표시가 있는 녹색 버튼, 축소하려면 빼기 표시가 있는 녹색 버튼, 다음 페이지의 지도를 보려면 녹색 화살표를 클릭하세요.


METAR-TAF: